sensor_id;sensor_type;location;lat;lon;timestamp;temperature;humidity
21759;DHT22;11041;50.854;20.580;2023-12-28T00:02:10;0.20;99.90
21759;DHT22;11041;50.854;20.580;2023-12-28T00:04:40;0.40;99.90
21759;DHT22;11041;50.854;20.580;2023-12-28T00:07:07;0.50;99.90
21759;DHT22;11041;50.854;20.580;2023-12-28T00:09:35;0.50;99.90
21759;DHT22;11041;50.854;20.580;2023-12-28T00:12:03;0.60;99.90
21759;DHT22;11041;50.854;20.580;2023-12-28T00:14:33;0.60;99.90
21759;DHT22;11041;50.854;20.580;2023-12-28T00:16:59;0.60;99.90
21759;DHT22;11041;50.854;20.580;2023-12-28T00:19:27;0.70;99.90
21759;DHT22;11041;50.854;20.580;2023-12-28T00:21:54;0.70;99.90
21759;DHT22;11041;50.854;20.580;2023-12-28T00:24:21;0.80;99.90
21759;DHT22;11041;50.854;20.580;2023-12-28T00:26:48;0.70;99.90
21759;DHT22;11041;50.854;20.580;2023-12-28T00:29:14;0.80;99.90
21759;DHT22;11041;50.854;20.580;2023-12-28T00:31:41;0.80;99.90
21759;DHT22;11041;50.854;20.580;2023-12-28T00:34:08;0.80;99.90
21759;DHT22;11041;50.854;20.580;2023-12-28T00:36:35;0.80;99.90
21759;DHT22;11041;50.854;20.580;2023-12-28T00:39:03;0.80;99.90
21759;DHT22;11041;50.854;20.580;2023-12-28T00:41:29;0.90;99.90
21759;DHT22;11041;50.854;20.580;2023-12-28T00:43:57;0.90;99.90
21759;DHT22;11041;50.854;20.580;2023-12-28T00:46:23;1.00;99.90
21759;DHT22;11041;50.854;20.580;2023-12-28T00:48:51;1.00;99.90
21759;DHT22;11041;50.854;20.580;2023-12-28T00:51:19;1.00;99.90
21759;DHT22;11041;50.854;20.580;2023-12-28T00:53:47;1.10;99.90
21759;DHT22;11041;50.854;20.580;2023-12-28T00:56:14;1.00;99.90
21759;DHT22;11041;50.854;20.580;2023-12-28T00:58:42;1.10;99.90
21759;DHT22;11041;50.854;20.580;2023-12-28T01:01:10;1.10;99.90
21759;DHT22;11041;50.854;20.580;2023-12-28T01:03:37;1.10;99.90
21759;DHT22;11041;50.854;20.580;2023-12-28T01:06:06;1.10;99.90
21759;DHT22;11041;50.854;20.580;2023-12-28T01:08:33;1.10;99.90
21759;DHT22;11041;50.854;20.580;2023-12-28T01:11:02;1.10;99.90
21759;DHT22;11041;50.854;20.580;2023-12-28T01:13:31;1.10;99.90
21759;DHT22;11041;50.854;20.580;2023-12-28T01:15:57;1.00;99.90
21759;DHT22;11041;50.854;20.580;2023-12-28T01:18:24;1.00;99.90
21759;DHT22;11041;50.854;20.580;2023-12-28T01:20:52;1.10;99.90
21759;DHT22;11041;50.854;20.580;2023-12-28T01:23:21;1.10;99.90
21759;DHT22;11041;50.854;20.580;2023-12-28T01:25:48;1.20;99.90
21759;DHT22;11041;50.854;20.580;2023-12-28T01:28:16;1.20;99.90
21759;DHT22;11041;50.854;20.580;2023-12-28T01:30:43;1.30;99.90
21759;DHT22;11041;50.854;20.580;2023-12-28T01:33:11;1.40;99.90
21759;DHT22;11041;50.854;20.580;2023-12-28T01:35:39;1.50;99.90
21759;DHT22;11041;50.854;20.580;2023-12-28T01:38:06;1.60;99.90
21759;DHT22;11041;50.854;20.580;2023-12-28T01:40:34;1.60;99.90
21759;DHT22;11041;50.854;20.580;2023-12-28T01:43:00;1.60;99.90
21759;DHT22;11041;50.854;20.580;2023-12-28T01:45:27;1.60;99.90
21759;DHT22;11041;50.854;20.580;2023-12-28T01:47:56;1.50;99.90
21759;DHT22;11041;50.854;20.580;2023-12-28T01:50:26;1.50;99.90
21759;DHT22;11041;50.854;20.580;2023-12-28T01:52:55;1.50;99.90
21759;DHT22;11041;50.854;20.580;2023-12-28T01:55:25;1.60;99.90
21759;DHT22;11041;50.854;20.580;2023-12-28T01:57:54;1.50;99.90
21759;DHT22;11041;50.854;20.580;2023-12-28T02:00:25;1.50;99.90
21759;DHT22;11041;50.854;20.580;2023-12-28T02:02:52;1.50;99.90
21759;DHT22;11041;50.854;20.580;2023-12-28T02:05:20;1.50;99.90
21759;DHT22;11041;50.854;20.580;2023-12-28T02:07:47;1.50;99.90
21759;DHT22;11041;50.854;20.580;2023-12-28T02:10:14;1.40;99.90
21759;DHT22;11041;50.854;20.580;2023-12-28T02:12:41;1.30;99.90
21759;DHT22;11041;50.854;20.580;2023-12-28T02:15:08;1.30;99.90
21759;DHT22;11041;50.854;20.580;2023-12-28T02:17:50;1.30;99.90
21759;DHT22;11041;50.854;20.580;2023-12-28T02:20:25;1.30;99.90
21759;DHT22;11041;50.854;20.580;2023-12-28T02:22:55;1.30;99.90
21759;DHT22;11041;50.854;20.580;2023-12-28T02:25:22;1.30;99.90
21759;DHT22;11041;50.854;20.580;2023-12-28T02:27:51;1.20;99.90
21759;DHT22;11041;50.854;20.580;2023-12-28T02:30:21;1.20;99.90
21759;DHT22;11041;50.854;20.580;2023-12-28T02:35:54;1.20;99.90
21759;DHT22;11041;50.854;20.580;2023-12-28T02:38:33;1.20;99.90
21759;DHT22;11041;50.854;20.580;2023-12-28T02:41:03;1.30;99.90
21759;DHT22;11041;50.854;20.580;2023-12-28T02:43:32;1.30;99.90
21759;DHT22;11041;50.854;20.580;2023-12-28T02:46:00;1.40;99.90
21759;DHT22;11041;50.854;20.580;2023-12-28T02:48:27;1.40;99.90
21759;DHT22;11041;50.854;20.580;2023-12-28T02:50:56;1.40;99.90
21759;DHT22;11041;50.854;20.580;2023-12-28T02:53:27;1.40;99.90
21759;DHT22;11041;50.854;20.580;2023-12-28T02:55:54;1.40;99.90
21759;DHT22;11041;50.854;20.580;2023-12-28T02:58:27;1.40;99.90
21759;DHT22;11041;50.854;20.580;2023-12-28T03:00:58;1.50;99.90
21759;DHT22;11041;50.854;20.580;2023-12-28T03:03:29;1.50;99.90
21759;DHT22;11041;50.854;20.580;2023-12-28T03:06:00;1.50;99.90
21759;DHT22;11041;50.854;20.580;2023-12-28T03:08:28;1.50;99.90
21759;DHT22;11041;50.854;20.580;2023-12-28T03:10:54;1.40;99.90
21759;DHT22;11041;50.854;20.580;2023-12-28T03:13:26;1.40;99.90
21759;DHT22;11041;50.854;20.580;2023-12-28T03:15:55;1.40;99.90
21759;DHT22;11041;50.854;20.580;2023-12-28T03:18:22;1.40;99.90
21759;DHT22;11041;50.854;20.580;2023-12-28T03:20:51;1.40;99.90
21759;DHT22;11041;50.854;20.580;2023-12-28T03:23:20;1.30;99.90
21759;DHT22;11041;50.854;20.580;2023-12-28T03:25:46;1.30;99.90
21759;DHT22;11041;50.854;20.580;2023-12-28T03:28:19;1.20;99.90
21759;DHT22;11041;50.854;20.580;2023-12-28T03:30:46;1.20;99.90
21759;DHT22;11041;50.854;20.580;2023-12-28T03:33:19;1.20;99.90
21759;DHT22;11041;50.854;20.580;2023-12-28T03:35:53;1.20;99.90
21759;DHT22;11041;50.854;20.580;2023-12-28T03:38:20;1.20;99.90
21759;DHT22;11041;50.854;20.580;2023-12-28T03:40:52;1.10;99.90
21759;DHT22;11041;50.854;20.580;2023-12-28T03:43:21;1.10;99.90
21759;DHT22;11041;50.854;20.580;2023-12-28T03:45:50;1.10;99.90
21759;DHT22;11041;50.854;20.580;2023-12-28T03:48:19;1.10;99.90
21759;DHT22;11041;50.854;20.580;2023-12-28T03:50:47;1.10;99.90
21759;DHT22;11041;50.854;20.580;2023-12-28T03:53:16;1.10;99.90
21759;DHT22;11041;50.854;20.580;2023-12-28T03:55:48;1.10;99.90
21759;DHT22;11041;50.854;20.580;2023-12-28T03:58:15;1.10;99.90
21759;DHT22;11041;50.854;20.580;2023-12-28T04:00:41;1.10;99.90
21759;DHT22;11041;50.854;20.580;2023-12-28T04:03:10;1.10;99.90
21759;DHT22;11041;50.854;20.580;2023-12-28T04:05:40;1.10;99.90
21759;DHT22;11041;50.854;20.580;2023-12-28T04:08:11;1.10;99.90
21759;DHT22;11041;50.854;20.580;2023-12-28T04:10:40;1.00;99.90
21759;DHT22;11041;50.854;20.580;2023-12-28T04:13:07;1.10;99.90
21759;DHT22;11041;50.854;20.580;2023-12-28T04:15:35;1.10;99.90
21759;DHT22;11041;50.854;20.580;2023-12-28T04:18:05;1.10;99.90
21759;DHT22;11041;50.854;20.580;2023-12-28T04:20:32;1.10;99.90
21759;DHT22;11041;50.854;20.580;2023-12-28T04:23:03;1.10;99.90
21759;DHT22;11041;50.854;20.580;2023-12-28T04:25:30;1.10;99.90
21759;DHT22;11041;50.854;20.580;2023-12-28T04:28:02;0.90;99.90
21759;DHT22;11041;50.854;20.580;2023-12-28T04:30:29;1.00;99.90
21759;DHT22;11041;50.854;20.580;2023-12-28T04:33:01;0.90;99.90
21759;DHT22;11041;50.854;20.580;2023-12-28T04:35:30;0.80;99.90
21759;DHT22;11041;50.854;20.580;2023-12-28T04:38:01;0.70;99.90
21759;DHT22;11041;50.854;20.580;2023-12-28T04:40:31;0.70;99.90
21759;DHT22;11041;50.854;20.580;2023-12-28T04:43:00;0.70;99.90
21759;DHT22;11041;50.854;20.580;2023-12-28T04:45:26;0.70;99.90
21759;DHT22;11041;50.854;20.580;2023-12-28T04:47:54;0.70;99.90
21759;DHT22;11041;50.854;20.580;2023-12-28T04:50:21;0.70;99.90
21759;DHT22;11041;50.854;20.580;2023-12-28T04:52:53;0.60;99.90
21759;DHT22;11041;50.854;20.580;2023-12-28T04:55:22;0.60;99.90
21759;DHT22;11041;50.854;20.580;2023-12-28T04:57:53;0.50;99.90
21759;DHT22;11041;50.854;20.580;2023-12-28T05:00:19;0.60;99.90
21759;DHT22;11041;50.854;20.580;2023-12-28T05:02:46;0.60;99.90
21759;DHT22;11041;50.854;20.580;2023-12-28T05:05:17;0.40;99.90
21759;DHT22;11041;50.854;20.580;2023-12-28T05:07:51;0.50;99.90
21759;DHT22;11041;50.854;20.580;2023-12-28T05:10:19;0.50;99.90
21759;DHT22;11041;50.854;20.580;2023-12-28T05:12:48;0.40;99.90
21759;DHT22;11041;50.854;20.580;2023-12-28T05:15:17;0.50;99.90
21759;DHT22;11041;50.854;20.580;2023-12-28T05:17:47;0.50;99.90
21759;DHT22;11041;50.854;20.580;2023-12-28T05:20:18;0.50;99.90
21759;DHT22;11041;50.854;20.580;2023-12-28T05:22:49;0.30;99.90
21759;DHT22;11041;50.854;20.580;2023-12-28T05:25:16;0.30;99.90
21759;DHT22;11041;50.854;20.580;2023-12-28T05:27:44;0.40;99.90
21759;DHT22;11041;50.854;20.580;2023-12-28T05:30:16;0.30;99.90
21759;DHT22;11041;50.854;20.580;2023-12-28T05:32:47;0.40;99.90
21759;DHT22;11041;50.854;20.580;2023-12-28T05:35:19;0.40;99.90
21759;DHT22;11041;50.854;20.580;2023-12-28T05:37:49;0.40;99.90
21759;DHT22;11041;50.854;20.580;2023-12-28T05:40:18;0.30;99.90
21759;DHT22;11041;50.854;20.580;2023-12-28T05:42:47;0.40;99.90
21759;DHT22;11041;50.854;20.580;2023-12-28T05:45:17;0.40;99.90
21759;DHT22;11041;50.854;20.580;2023-12-28T05:47:48;0.40;99.90
21759;DHT22;11041;50.854;20.580;2023-12-28T05:50:14;0.30;99.90
21759;DHT22;11041;50.854;20.580;2023-12-28T05:52:43;0.30;99.90
21759;DHT22;11041;50.854;20.580;2023-12-28T05:55:13;0.30;99.90
21759;DHT22;11041;50.854;20.580;2023-12-28T05:57:43;0.30;99.90
21759;DHT22;11041;50.854;20.580;2023-12-28T06:00:15;0.40;99.90
21759;DHT22;11041;50.854;20.580;2023-12-28T06:02:45;0.40;99.90
21759;DHT22;11041;50.854;20.580;2023-12-28T06:05:12;0.50;99.90
21759;DHT22;11041;50.854;20.580;2023-12-28T06:07:41;0.60;99.90
21759;DHT22;11041;50.854;20.580;2023-12-28T06:10:09;0.60;99.90
21759;DHT22;11041;50.854;20.580;2023-12-28T06:12:39;0.60;99.90
21759;DHT22;11041;50.854;20.580;2023-12-28T06:15:11;0.60;99.90
21759;DHT22;11041;50.854;20.580;2023-12-28T06:17:43;0.70;99.90
21759;DHT22;11041;50.854;20.580;2023-12-28T06:20:10;0.70;99.90
21759;DHT22;11041;50.854;20.580;2023-12-28T06:22:39;0.70;99.90
21759;DHT22;11041;50.854;20.580;2023-12-28T06:25:06;0.80;99.90
21759;DHT22;11041;50.854;20.580;2023-12-28T06:27:34;0.80;99.90
21759;DHT22;11041;50.854;20.580;2023-12-28T06:30:00;0.90;99.90
21759;DHT22;11041;50.854;20.580;2023-12-28T06:32:26;0.90;99.90
21759;DHT22;11041;50.854;20.580;2023-12-28T06:34:55;0.90;99.90
21759;DHT22;11041;50.854;20.580;2023-12-28T06:37:22;1.00;99.90
21759;DHT22;11041;50.854;20.580;2023-12-28T06:39:51;1.00;99.90
21759;DHT22;11041;50.854;20.580;2023-12-28T06:42:17;1.00;99.90
21759;DHT22;11041;50.854;20.580;2023-12-28T06:44:47;1.00;99.90
21759;DHT22;11041;50.854;20.580;2023-12-28T06:47:13;1.10;99.90
21759;DHT22;11041;50.854;20.580;2023-12-28T06:49:40;1.10;99.90
21759;DHT22;11041;50.854;20.580;2023-12-28T06:52:11;1.10;99.90
21759;DHT22;11041;50.854;20.580;2023-12-28T06:54:38;1.10;99.90
21759;DHT22;11041;50.854;20.580;2023-12-28T06:57:05;1.20;99.90
21759;DHT22;11041;50.854;20.580;2023-12-28T06:59:34;1.20;99.90
21759;DHT22;11041;50.854;20.580;2023-12-28T07:02:06;1.20;99.90
21759;DHT22;11041;50.854;20.580;2023-12-28T07:04:34;1.20;99.90
21759;DHT22;11041;50.854;20.580;2023-12-28T07:07:07;1.20;99.90
21759;DHT22;11041;50.854;20.580;2023-12-28T07:09:35;1.20;99.90
21759;DHT22;11041;50.854;20.580;2023-12-28T07:12:05;1.20;99.90
21759;DHT22;11041;50.854;20.580;2023-12-28T07:14:35;1.10;99.90
21759;DHT22;11041;50.854;20.580;2023-12-28T07:17:03;1.10;99.90
21759;DHT22;11041;50.854;20.580;2023-12-28T07:19:31;1.00;99.90
21759;DHT22;11041;50.854;20.580;2023-12-28T07:21:58;1.00;99.90
21759;DHT22;11041;50.854;20.580;2023-12-28T07:24:30;1.00;99.90
21759;DHT22;11041;50.854;20.580;2023-12-28T07:27:02;0.90;99.90
21759;DHT22;11041;50.854;20.580;2023-12-28T07:29:31;0.90;99.90
21759;DHT22;11041;50.854;20.580;2023-12-28T07:32:00;1.00;99.90
21759;DHT22;11041;50.854;20.580;2023-12-28T07:34:29;1.00;99.90
21759;DHT22;11041;50.854;20.580;2023-12-28T07:37:01;1.10;99.90
21759;DHT22;11041;50.854;20.580;2023-12-28T07:39:31;1.20;99.90
21759;DHT22;11041;50.854;20.580;2023-12-28T07:42:02;1.30;99.90
21759;DHT22;11041;50.854;20.580;2023-12-28T07:44:33;1.40;99.90
21759;DHT22;11041;50.854;20.580;2023-12-28T07:47:04;1.40;99.90
21759;DHT22;11041;50.854;20.580;2023-12-28T07:49:32;1.50;99.90
21759;DHT22;11041;50.854;20.580;2023-12-28T07:52:00;1.60;99.90
21759;DHT22;11041;50.854;20.580;2023-12-28T07:54:26;1.70;99.90
21759;DHT22;11041;50.854;20.580;2023-12-28T07:56:53;1.70;99.90
21759;DHT22;11041;50.854;20.580;2023-12-28T07:59:21;1.70;99.90
21759;DHT22;11041;50.854;20.580;2023-12-28T08:01:51;1.80;99.90
21759;DHT22;11041;50.854;20.580;2023-12-28T08:04:17;1.90;99.90
21759;DHT22;11041;50.854;20.580;2023-12-28T08:06:44;2.00;99.90
21759;DHT22;11041;50.854;20.580;2023-12-28T08:09:12;2.00;99.90
21759;DHT22;11041;50.854;20.580;2023-12-28T08:11:39;2.10;99.90
21759;DHT22;11041;50.854;20.580;2023-12-28T08:14:09;2.10;99.90
21759;DHT22;11041;50.854;20.580;2023-12-28T08:16:38;2.10;99.90
21759;DHT22;11041;50.854;20.580;2023-12-28T08:19:05;2.20;99.90
21759;DHT22;11041;50.854;20.580;2023-12-28T08:21:34;2.20;99.90
21759;DHT22;11041;50.854;20.580;2023-12-28T08:24:01;2.30;99.90
21759;DHT22;11041;50.854;20.580;2023-12-28T08:26:28;2.40;99.90
21759;DHT22;11041;50.854;20.580;2023-12-28T08:28:56;2.40;99.90
21759;DHT22;11041;50.854;20.580;2023-12-28T08:31:23;2.50;99.90
21759;DHT22;11041;50.854;20.580;2023-12-28T08:33:52;2.60;99.90
21759;DHT22;11041;50.854;20.580;2023-12-28T08:36:19;2.60;99.90
21759;DHT22;11041;50.854;20.580;2023-12-28T08:38:46;2.70;99.90
21759;DHT22;11041;50.854;20.580;2023-12-28T08:41:23;2.70;99.90
21759;DHT22;11041;50.854;20.580;2023-12-28T08:43:50;2.80;99.90
21759;DHT22;11041;50.854;20.580;2023-12-28T08:46:18;2.80;99.90
21759;DHT22;11041;50.854;20.580;2023-12-28T08:48:45;2.90;99.90
21759;DHT22;11041;50.854;20.580;2023-12-28T08:51:11;3.00;99.90
21759;DHT22;11041;50.854;20.580;2023-12-28T08:53:41;3.00;99.90
21759;DHT22;11041;50.854;20.580;2023-12-28T08:56:19;3.10;99.90
21759;DHT22;11041;50.854;20.580;2023-12-28T08:58:47;3.10;99.90
21759;DHT22;11041;50.854;20.580;2023-12-28T09:01:22;3.20;99.90
21759;DHT22;11041;50.854;20.580;2023-12-28T09:03:52;3.10;99.90
21759;DHT22;11041;50.854;20.580;2023-12-28T09:06:21;3.20;99.90
21759;DHT22;11041;50.854;20.580;2023-12-28T09:08:51;3.30;99.90
21759;DHT22;11041;50.854;20.580;2023-12-28T09:11:19;3.30;99.90
21759;DHT22;11041;50.854;20.580;2023-12-28T09:13:48;3.40;99.90
21759;DHT22;11041;50.854;20.580;2023-12-28T09:16:15;3.50;99.90
21759;DHT22;11041;50.854;20.580;2023-12-28T09:18:42;3.50;99.90
21759;DHT22;11041;50.854;20.580;2023-12-28T09:21:10;3.60;99.90
21759;DHT22;11041;50.854;20.580;2023-12-28T09:23:39;3.70;99.90
21759;DHT22;11041;50.854;20.580;2023-12-28T09:26:07;3.80;99.90
21759;DHT22;11041;50.854;20.580;2023-12-28T09:28:34;3.80;99.90
21759;DHT22;11041;50.854;20.580;2023-12-28T09:31:02;3.80;99.90
21759;DHT22;11041;50.854;20.580;2023-12-28T09:33:30;3.90;99.90
21759;DHT22;11041;50.854;20.580;2023-12-28T09:35:56;4.00;99.90
21759;DHT22;11041;50.854;20.580;2023-12-28T09:38:23;4.10;99.90
21759;DHT22;11041;50.854;20.580;2023-12-28T09:40:53;4.20;99.90
21759;DHT22;11041;50.854;20.580;2023-12-28T09:43:26;4.30;99.90
21759;DHT22;11041;50.854;20.580;2023-12-28T09:46:07;4.30;99.90
21759;DHT22;11041;50.854;20.580;2023-12-28T09:48:35;4.30;99.90
21759;DHT22;11041;50.854;20.580;2023-12-28T09:51:07;4.40;99.90
21759;DHT22;11041;50.854;20.580;2023-12-28T09:53:37;4.40;99.90
21759;DHT22;11041;50.854;20.580;2023-12-28T09:56:04;4.40;99.90
21759;DHT22;11041;50.854;20.580;2023-12-28T09:58:33;4.50;99.90
21759;DHT22;11041;50.854;20.580;2023-12-28T10:01:03;4.50;99.90
21759;DHT22;11041;50.854;20.580;2023-12-28T10:03:37;4.50;99.90
21759;DHT22;11041;50.854;20.580;2023-12-28T10:06:04;4.40;99.90
21759;DHT22;11041;50.854;20.580;2023-12-28T10:08:35;4.50;99.90
21759;DHT22;11041;50.854;20.580;2023-12-28T10:11:05;4.60;99.90
21759;DHT22;11041;50.854;20.580;2023-12-28T10:13:36;4.60;99.90
21759;DHT22;11041;50.854;20.580;2023-12-28T10:16:09;4.80;99.90
21759;DHT22;11041;50.854;20.580;2023-12-28T10:18:40;4.80;99.90
21759;DHT22;11041;50.854;20.580;2023-12-28T10:21:10;5.00;99.90
21759;DHT22;11041;50.854;20.580;2023-12-28T10:23:37;5.00;99.90
21759;DHT22;11041;50.854;20.580;2023-12-28T10:26:08;5.10;99.90
21759;DHT22;11041;50.854;20.580;2023-12-28T10:28:36;5.30;99.90
21759;DHT22;11041;50.854;20.580;2023-12-28T10:31:07;5.60;99.90
21759;DHT22;11041;50.854;20.580;2023-12-28T10:33:40;6.10;99.90
21759;DHT22;11041;50.854;20.580;2023-12-28T10:36:15;6.20;99.90
21759;DHT22;11041;50.854;20.580;2023-12-28T10:38:47;6.60;99.90
21759;DHT22;11041;50.854;20.580;2023-12-28T10:41:21;6.90;99.90
21759;DHT22;11041;50.854;20.580;2023-12-28T10:44:06;7.20;99.90
21759;DHT22;11041;50.854;20.580;2023-12-28T10:46:39;7.20;99.90
21759;DHT22;11041;50.854;20.580;2023-12-28T10:49:16;7.30;99.90
21759;DHT22;11041;50.854;20.580;2023-12-28T10:51:51;7.50;99.90
21759;DHT22;11041;50.854;20.580;2023-12-28T10:57:25;7.80;99.90
21759;DHT22;11041;50.854;20.580;2023-12-28T11:00:17;7.80;99.90
21759;DHT22;11041;50.854;20.580;2023-12-28T11:02:53;7.80;99.90
21759;DHT22;11041;50.854;20.580;2023-12-28T11:05:23;7.80;99.90
21759;DHT22;11041;50.854;20.580;2023-12-28T11:07:51;7.80;99.90
21759;DHT22;11041;50.854;20.580;2023-12-28T11:10:25;7.80;99.90
21759;DHT22;11041;50.854;20.580;2023-12-28T11:12:56;7.80;99.90
21759;DHT22;11041;50.854;20.580;2023-12-28T11:15:28;7.80;99.90
21759;DHT22;11041;50.854;20.580;2023-12-28T11:17:57;7.90;99.90
21759;DHT22;11041;50.854;20.580;2023-12-28T11:20:27;8.10;99.90
21759;DHT22;11041;50.854;20.580;2023-12-28T11:22:56;8.30;99.90
21759;DHT22;11041;50.854;20.580;2023-12-28T11:25:33;8.40;99.90
21759;DHT22;11041;50.854;20.580;2023-12-28T11:28:14;8.60;99.90
21759;DHT22;11041;50.854;20.580;2023-12-28T11:30:44;8.60;99.90
21759;DHT22;11041;50.854;20.580;2023-12-28T11:33:18;8.80;99.90
21759;DHT22;11041;50.854;20.580;2023-12-28T11:35:49;8.80;99.90
21759;DHT22;11041;50.854;20.580;2023-12-28T11:38:20;9.00;99.90
21759;DHT22;11041;50.854;20.580;2023-12-28T11:40:48;9.10;99.90
21759;DHT22;11041;50.854;20.580;2023-12-28T11:43:21;9.20;99.90
21759;DHT22;11041;50.854;20.580;2023-12-28T11:45:54;9.30;99.90
21759;DHT22;11041;50.854;20.580;2023-12-28T11:48:30;9.50;99.90
21759;DHT22;11041;50.854;20.580;2023-12-28T11:50:58;9.50;99.90
21759;DHT22;11041;50.854;20.580;2023-12-28T11:53:32;9.60;99.90
21759;DHT22;11041;50.854;20.580;2023-12-28T11:56:00;9.50;99.90
21759;DHT22;11041;50.854;20.580;2023-12-28T11:58:33;9.50;99.90
21759;DHT22;11041;50.854;20.580;2023-12-28T12:01:02;9.40;99.90
21759;DHT22;11041;50.854;20.580;2023-12-28T12:03:34;9.40;99.90
21759;DHT22;11041;50.854;20.580;2023-12-28T12:06:01;9.40;99.90
21759;DHT22;11041;50.854;20.580;2023-12-28T12:08:27;9.40;99.90
21759;DHT22;11041;50.854;20.580;2023-12-28T12:11:01;9.30;99.90
21759;DHT22;11041;50.854;20.580;2023-12-28T12:13:32;9.40;99.90
21759;DHT22;11041;50.854;20.580;2023-12-28T12:16:00;9.30;99.90
21759;DHT22;11041;50.854;20.580;2023-12-28T12:18:32;9.30;99.90
21759;DHT22;11041;50.854;20.580;2023-12-28T12:21:00;9.30;99.90
21759;DHT22;11041;50.854;20.580;2023-12-28T12:23:27;9.30;99.90
21759;DHT22;11041;50.854;20.580;2023-12-28T12:25:54;9.30;99.90
21759;DHT22;11041;50.854;20.580;2023-12-28T12:28:25;9.30;99.90
21759;DHT22;11041;50.854;20.580;2023-12-28T12:30:55;9.30;99.90
21759;DHT22;11041;50.854;20.580;2023-12-28T12:33:26;9.30;99.90
21759;DHT22;11041;50.854;20.580;2023-12-28T12:35:54;9.20;99.90
21759;DHT22;11041;50.854;20.580;2023-12-28T12:38:21;9.20;99.90
21759;DHT22;11041;50.854;20.580;2023-12-28T12:40:51;9.30;99.90
21759;DHT22;11041;50.854;20.580;2023-12-28T12:43:18;9.20;99.90
21759;DHT22;11041;50.854;20.580;2023-12-28T12:45:50;9.20;99.90
21759;DHT22;11041;50.854;20.580;2023-12-28T12:48:19;9.20;99.90
21759;DHT22;11041;50.854;20.580;2023-12-28T12:50:46;9.10;99.90
21759;DHT22;11041;50.854;20.580;2023-12-28T12:53:12;9.00;99.90
21759;DHT22;11041;50.854;20.580;2023-12-28T12:55:40;9.00;99.90
21759;DHT22;11041;50.854;20.580;2023-12-28T12:58:13;8.90;99.90
21759;DHT22;11041;50.854;20.580;2023-12-28T13:00:45;8.90;99.90
21759;DHT22;11041;50.854;20.580;2023-12-28T13:03:15;8.90;99.90
21759;DHT22;11041;50.854;20.580;2023-12-28T13:05:47;8.90;99.90
21759;DHT22;11041;50.854;20.580;2023-12-28T13:08:14;8.80;99.90
21759;DHT22;11041;50.854;20.580;2023-12-28T13:10:42;8.80;99.90
21759;DHT22;11041;50.854;20.580;2023-12-28T13:13:09;8.70;99.90
21759;DHT22;11041;50.854;20.580;2023-12-28T13:15:38;8.70;99.90
21759;DHT22;11041;50.854;20.580;2023-12-28T13:18:08;8.60;99.90
21759;DHT22;11041;50.854;20.580;2023-12-28T13:20:37;8.60;99.90
21759;DHT22;11041;50.854;20.580;2023-12-28T13:23:04;8.40;99.90
21759;DHT22;11041;50.854;20.580;2023-12-28T13:25:34;8.30;99.90
21759;DHT22;11041;50.854;20.580;2023-12-28T13:28:04;8.30;99.90
21759;DHT22;11041;50.854;20.580;2023-12-28T13:30:33;8.10;99.90
21759;DHT22;11041;50.854;20.580;2023-12-28T13:33:03;8.10;99.90
21759;DHT22;11041;50.854;20.580;2023-12-28T13:35:34;8.10;99.90
21759;DHT22;11041;50.854;20.580;2023-12-28T13:38:00;8.10;99.90
21759;DHT22;11041;50.854;20.580;2023-12-28T13:40:29;8.00;99.90
21759;DHT22;11041;50.854;20.580;2023-12-28T13:42:58;8.00;99.90
21759;DHT22;11041;50.854;20.580;2023-12-28T13:45:28;7.90;99.90
21759;DHT22;11041;50.854;20.580;2023-12-28T13:47:57;7.80;99.90
21759;DHT22;11041;50.854;20.580;2023-12-28T13:50:23;7.80;99.90
21759;DHT22;11041;50.854;20.580;2023-12-28T13:52:51;7.70;99.90
21759;DHT22;11041;50.854;20.580;2023-12-28T13:55:18;7.70;99.90
21759;DHT22;11041;50.854;20.580;2023-12-28T13:57:47;7.70;99.90
21759;DHT22;11041;50.854;20.580;2023-12-28T14:00:17;7.60;99.90
21759;DHT22;11041;50.854;20.580;2023-12-28T14:02:47;7.60;99.90
21759;DHT22;11041;50.854;20.580;2023-12-28T14:05:13;7.60;99.90
21759;DHT22;11041;50.854;20.580;2023-12-28T14:07:42;7.50;99.90
21759;DHT22;11041;50.854;20.580;2023-12-28T14:10:10;7.50;99.90
21759;DHT22;11041;50.854;20.580;2023-12-28T14:12:37;7.50;99.90
21759;DHT22;11041;50.854;20.580;2023-12-28T14:15:05;7.60;99.90
21759;DHT22;11041;50.854;20.580;2023-12-28T14:17:34;7.70;99.90
21759;DHT22;11041;50.854;20.580;2023-12-28T14:20:02;7.70;99.90
21759;DHT22;11041;50.854;20.580;2023-12-28T14:22:30;7.80;99.90
21759;DHT22;11041;50.854;20.580;2023-12-28T14:24:59;7.90;99.90
21759;DHT22;11041;50.854;20.580;2023-12-28T14:27:29;8.00;99.90
21759;DHT22;11041;50.854;20.580;2023-12-28T14:29:57;7.90;99.90
21759;DHT22;11041;50.854;20.580;2023-12-28T14:32:26;7.90;99.90
21759;DHT22;11041;50.854;20.580;2023-12-28T14:34:53;8.00;99.90
21759;DHT22;11041;50.854;20.580;2023-12-28T14:37:20;8.10;99.90
21759;DHT22;11041;50.854;20.580;2023-12-28T14:39:47;8.10;99.90
21759;DHT22;11041;50.854;20.580;2023-12-28T14:42:16;8.20;99.90
21759;DHT22;11041;50.854;20.580;2023-12-28T14:44:47;8.20;99.90
21759;DHT22;11041;50.854;20.580;2023-12-28T14:47:16;8.20;99.90
21759;DHT22;11041;50.854;20.580;2023-12-28T14:49:46;8.20;99.90
21759;DHT22;11041;50.854;20.580;2023-12-28T14:52:15;8.30;99.90
21759;DHT22;11041;50.854;20.580;2023-12-28T14:54:42;8.30;99.90
21759;DHT22;11041;50.854;20.580;2023-12-28T14:57:09;8.40;99.90
21759;DHT22;11041;50.854;20.580;2023-12-28T14:59:38;8.30;99.90
21759;DHT22;11041;50.854;20.580;2023-12-28T15:02:05;8.40;99.90
21759;DHT22;11041;50.854;20.580;2023-12-28T15:04:34;8.50;99.90
21759;DHT22;11041;50.854;20.580;2023-12-28T15:07:04;8.60;99.90
21759;DHT22;11041;50.854;20.580;2023-12-28T15:09:33;8.50;99.90
21759;DHT22;11041;50.854;20.580;2023-12-28T15:12:00;8.50;99.90
21759;DHT22;11041;50.854;20.580;2023-12-28T15:14:27;8.50;99.90
21759;DHT22;11041;50.854;20.580;2023-12-28T15:16:57;8.50;99.90
21759;DHT22;11041;50.854;20.580;2023-12-28T15:19:24;8.50;99.90
21759;DHT22;11041;50.854;20.580;2023-12-28T15:21:52;8.60;99.90
21759;DHT22;11041;50.854;20.580;2023-12-28T15:24:19;8.50;99.90
21759;DHT22;11041;50.854;20.580;2023-12-28T15:26:46;8.50;99.90
21759;DHT22;11041;50.854;20.580;2023-12-28T15:29:13;8.50;99.90
21759;DHT22;11041;50.854;20.580;2023-12-28T15:31:42;8.40;99.90
21759;DHT22;11041;50.854;20.580;2023-12-28T15:34:09;8.40;99.90
21759;DHT22;11041;50.854;20.580;2023-12-28T15:36:39;8.50;99.90
21759;DHT22;11041;50.854;20.580;2023-12-28T15:39:07;8.50;99.90
21759;DHT22;11041;50.854;20.580;2023-12-28T15:41:37;8.50;99.90
21759;DHT22;11041;50.854;20.580;2023-12-28T15:44:04;8.40;99.90
21759;DHT22;11041;50.854;20.580;2023-12-28T15:46:33;8.40;99.90
21759;DHT22;11041;50.854;20.580;2023-12-28T15:49:01;8.50;99.90